Time;durP1;ratioP1;P1;durP2;ratioP2;P2;SDS_P1;SDS_P2;PMS_P1;PMS_P2;Temp;Humidity;BMP_temperature;BMP_pressure;BME280_temperature;BME280_humidity;BME280_pressure;Samples;Min_cycle;Max_cycle;Signal;HPM_P1;HPM_P2
2021/04/11 06:00:58;;;;;;;;;;;;;;;8.86;59.12;100530.03;1703407;81;27233;-57
2021/04/11 06:03:28;;;;;;;18.45;10.43;;;;;;;9.06;58.09;100536.22;1703311;83;25792;-57
2021/04/11 06:06:24;;;;;;;21.50;11.05;;;;;;;9.20;57.71;100532.25;1677414;85;25492;-57
2021/04/11 06:09:20;;;;;;;16.45;10.48;;;;;;;9.36;57.72;100530.91;1675594;84;25505;-57
2021/04/11 06:12:26;;;;;;;15.90;10.72;;;;;;;9.53;57.27;100537.11;1677338;84;25799;-60
2021/04/11 06:15:25;;;;;;;18.07;11.65;;;;;;;9.73;57.38;100527.30;1677237;85;25361;-58
2021/04/11 06:17:54;;;;;;;22.37;10.80;;;;;;;10.00;57.13;100533.06;1677239;85;25275;-58
2021/04/11 06:20:24;;;;;;;19.85;10.90;;;;;;;10.23;56.29;100528.02;1676982;85;25671;-58
2021/04/11 06:23:13;;;;;;;;;;;;;;;10.40;55.42;100529.33;1679652;85;25515;-58
2021/04/11 06:26:06;;;;;;;16.07;9.18;;;;;;;10.54;54.70;100527.95;1674227;85;28068;-57
2021/04/11 06:28:53;;;;;;;16.52;9.45;;;;;;;10.75;55.63;100524.28;1675795;85;25847;-58
2021/04/11 06:31:24;;;;;;;22.25;10.08;;;;;;;11.09;55.08;100529.19;1676428;84;25662;-58
2021/04/11 06:34:08;;;;;;;15.08;9.18;;;;;;;11.32;54.35;100527.30;1668972;85;25555;-57
2021/04/11 06:36:39;;;;;;;16.50;9.90;;;;;;;11.56;53.51;100526.97;1650295;85;25596;-58
2021/04/11 06:39:25;;;;;;;17.92;10.53;;;;;;;11.81;52.99;100515.22;1676984;84;25801;-57
2021/04/11 06:42:03;;;;;;;17.48;9.55;;;;;;;11.96;52.45;100524.33;1677287;85;25308;-57
2021/04/11 06:45:00;;;;;;;14.43;9.88;;;;;;;12.18;51.76;100513.73;1677350;85;25597;-59
2021/04/11 06:47:55;;;;;;;16.45;10.05;;;;;;;12.43;51.77;100521.14;1676994;84;25617;-56
2021/04/11 06:50:59;;;;;;;18.50;10.08;;;;;;;12.75;50.84;100515.60;1677331;85;25613;-58
2021/04/11 06:54:00;;;;;;;17.65;9.28;;;;;;;13.02;50.66;100516.64;1676960;85;25909;-59
2021/04/11 06:57:04;;;;;;;15.88;8.73;;;;;;;13.44;50.87;100508.80;1676998;85;25382;-58
2021/04/11 06:59:45;;;;;;;17.15;9.50;;;;;;;13.93;50.64;100507.16;1677294;85;25513;-58
2021/04/11 07:02:50;;;;;;;16.82;10.10;;;;;;;14.31;49.27;100507.68;1673792;84;25445;-58
2021/04/11 07:05:55;;;;;;;18.27;9.73;;;;;;;14.49;47.98;100498.86;1686418;84;25372;-59
2021/04/11 07:08:30;;;;;;;19.17;9.30;;;;;;;14.71;46.86;100491.52;1633336;87;25749;-58
2021/04/11 07:11:46;;;;;;;19.55;9.33;;;;;;;14.99;46.56;100495.88;1633591;87;25321;-57
2021/04/11 07:14:45;;;;;;;16.40;9.00;;;;;;;15.16;45.44;100491.41;1633523;87;25392;-57
2021/04/11 07:17:42;;;;;;;18.40;9.53;;;;;;;15.44;45.21;100487.50;1640293;87;25494;-59
2021/04/11 07:20:46;;;;;;;15.23;8.53;;;;;;;15.73;45.22;100490.63;1640805;87;25627;-59
2021/04/11 07:23:51;;;;;;;16.87;9.23;;;;;;;16.05;45.05;100490.91;1640553;87;25845;-57
2021/04/11 07:26:47;;;;;;;17.92;10.40;;;;;;;16.49;44.52;100482.13;1640695;87;25753;-60
2021/04/11 07:29:55;;;;;;;17.15;11.65;;;;;;;17.12;43.74;100482.98;1889084;76;25343;-60
2021/04/11 07:32:56;;;;;;;15.40;9.18;;;;;;;17.68;42.71;100476.05;1888860;76;25139;-58
2021/04/11 07:35:43;;;;;;;15.03;9.38;;;;;;;17.87;40.23;100490.42;1859910;77;25221;-58
2021/04/11 07:38:35;;;;;;;14.05;9.68;;;;;;;17.87;40.20;100480.05;1859675;77;28067;-59
2021/04/11 07:41:16;;;;;;;16.75;10.60;;;;;;;18.00;39.45;100482.14;1859821;77;25797;-62
2021/04/11 07:44:15;;;;;;;17.50;9.63;;;;;;;18.21;39.22;100485.35;1860020;77;25508;-59
2021/04/11 07:47:31;;;;;;;19.17;9.33;;;;;;;18.39;38.01;100480.84;1859655;77;25507;-59
2021/04/11 07:50:18;;;;;;;17.02;9.78;;;;;;;18.45;38.50;100483.54;1859862;77;25469;-58
2021/04/11 07:53:07;;;;;;;15.45;9.40;;;;;;;18.62;38.19;100480.97;1859334;77;25905;-59
2021/04/11 07:56:16;;;;;;;15.43;10.28;;;;;;;18.93;38.91;100480.65;1820997;77;25305;-60
2021/04/11 07:59:20;;;;;;;18.15;9.50;;;;;;;19.21;36.73;100483.16;1859684;77;25322;-59
2021/04/11 08:02:10;;;;;;;19.25;10.25;;;;;;;19.43;35.69;100487.09;1859661;77;25427;-59
2021/04/11 08:04:51;;;;;;;;;;;;;;;19.40;35.08;100494.67;1868900;76;25247;-59
2021/04/11 08:07:44;;;;;;;16.05;9.80;;;;;;;19.42;34.79;100488.23;1845818;75;25718;-59
2021/04/11 08:10:53;;;;;;;16.65;10.35;;;;;;;19.58;35.93;100491.67;1750069;80;26230;-58
2021/04/11 08:13:47;;;;;;;15.35;9.78;;;;;;;19.86;34.34;100488.44;1780323;78;26245;-60
2021/04/11 08:16:39;;;;;;;18.55;10.65;;;;;;;20.01;35.52;100490.84;1773619;79;25593;-59
2021/04/11 08:19:47;;;;;;;14.50;9.75;;;;;;;20.17;34.40;100484.59;1806482;78;25652;-59
2021/04/11 08:22:44;;;;;;;16.23;9.40;;;;;;;20.37;35.14;100484.50;1775412;80;25719;-59
2021/04/11 08:25:41;;;;;;;15.28;9.25;;;;;;;20.66;33.79;100490.61;1779678;80;25578;-58
2021/04/11 08:28:47;;;;;;;14.47;8.73;;;;;;;20.67;32.60;100490.83;1782001;79;26285;-59
2021/04/11 08:31:43;;;;;;;14.35;8.55;;;;;;;20.78;32.51;100484.08;1782114;80;26203;-59
2021/04/11 08:34:32;;;;;;;13.48;8.70;;;;;;;21.23;33.34;100486.38;1782481;80;25565;-60
2021/04/11 08:37:52;;;;;;;14.90;8.65;;;;;;;21.49;33.44;100476.44;1782973;80;25709;-59
2021/04/11 08:40:44;;;;;;;14.33;7.67;;;;;;;21.84;33.01;100488.92;1769430;80;25579;-60
2021/04/11 08:43:45;;;;;;;11.78;7.72;;;;;;;21.86;31.14;100487.95;1784828;80;25671;-60
2021/04/11 08:46:40;;;;;;;11.57;8.08;;;;;;;22.00;31.97;100485.31;1780647;80;25813;-60
2021/04/11 08:49:21;;;;;;;12.75;7.55;;;;;;;22.66;31.22;100479.05;1782970;78;25611;-60
2021/04/11 08:52:27;;;;;;;17.00;8.03;;;;;;;22.99;31.70;100473.06;1780778;78;25935;-61
2021/04/11 08:55:17;;;;;;;13.90;7.87;;;;;;;23.33;30.79;100484.39;1782379;78;26179;-59
2021/04/11 08:58:26;;;;;;;16.15;7.60;;;;;;;23.44;29.81;100473.56;1781377;80;25544;-59
2021/04/11 09:01:00;;;;;;;12.90;7.12;;;;;;;23.42;28.91;100472.39;1777412;80;25781;-61
2021/04/11 09:03:46;;;;;;;11.73;7.05;;;;;;;23.52;29.90;100479.12;1785528;79;25537;-61
2021/04/11 09:06:59;;;;;;;14.05;6.67;;;;;;;23.59;29.96;100469.45;1783000;80;26197;-60
2021/04/11 09:10:12;;;;;;;9.10;6.50;;;;;;;23.76;29.61;100469.26;1691691;83;25654;-60
2021/04/11 09:12:47;;;;;;;12.75;6.60;;;;;;;24.34;30.22;100468.01;1749354;81;25465;-59
2021/04/11 09:15:38;;;;;;;10.98;5.40;;;;;;;24.82;28.78;100469.44;1755516;80;25971;-59
2021/04/11 09:18:40;;;;;;;9.98;5.10;;;;;;;25.05;29.17;100462.62;1757742;80;25720;-59
2021/04/11 09:21:16;;;;;;;8.95;5.28;;;;;;;25.11;26.65;100457.63;1758980;80;25774;-58
2021/04/11 09:23:50;;;;;;;10.03;5.37;;;;;;;25.12;26.56;100461.20;1762773;80;25770;-59
2021/04/11 09:26:31;;;;;;;11.05;5.00;;;;;;;25.07;25.09;100450.55;1761755;80;25328;-58
2021/04/11 09:29:37;;;;;;;6.78;4.42;;;;;;;25.12;26.51;100450.91;1756922;80;25459;-60
2021/04/11 09:32:45;;;;;;;8.65;3.87;;;;;;;25.46;26.44;100443.99;1758548;80;27090;-59
2021/04/11 09:35:57;;;;;;;11.25;4.42;;;;;;;25.52;24.95;100441.77;1890424;74;25477;-60
2021/04/11 09:38:40;;;;;;;7.55;4.17;;;;;;;25.43;25.57;100432.34;1870258;76;25610;-57
2021/04/11 09:41:32;;;;;;;9.18;4.40;;;;;;;25.43;24.99;100424.04;1857429;76;25746;-58
2021/04/11 09:44:35;;;;;;;5.53;3.20;;;;;;;25.59;24.87;100412.42;1851537;77;25451;-60
2021/04/11 09:47:33;;;;;;;5.15;3.00;;;;;;;25.71;24.57;100413.30;1852001;77;25481;-61
2021/04/11 09:50:31;;;;;;;6.80;3.67;;;;;;;25.78;23.81;100422.14;1758314;81;25526;-60
2021/04/11 09:53:33;;;;;;;6.58;3.20;;;;;;;25.56;23.13;100411.27;1757435;81;25518;-59
2021/04/11 09:56:45;;;;;;;7.00;3.37;;;;;;;25.94;21.82;100412.69;1849595;76;25324;-59
2021/04/11 09:59:55;;;;;;;7.12;3.65;;;;;;;25.54;22.76;100413.06;1818941;78;25537;-60
2021/04/11 10:02:58;;;;;;;5.33;3.02;;;;;;;25.57;22.78;100393.45;1819545;78;25753;-61
2021/04/11 10:06:10;;;;;;;4.72;3.15;;;;;;;25.47;21.19;100397.09;1818637;78;25789;-59
2021/04/11 10:09:02;;;;;;;7.00;3.00;;;;;;;25.33;22.58;100396.02;1781445;80;25505;-59
2021/04/11 10:12:17;;;;;;;3.50;2.50;;;;;;;25.26;23.78;100404.98;1781426;80;25446;-59
2021/04/11 10:15:04;;;;;;;4.37;2.60;;;;;;;25.34;22.76;100395.44;1780075;80;25596;-59
2021/04/11 10:18:03;;;;;;;6.78;2.87;;;;;;;25.45;24.03;100384.27;1779671;80;25705;-62
2021/04/11 10:21:15;;;;;;;6.58;2.30;;;;;;;25.76;22.30;100391.30;1772320;79;25582;-60
2021/04/11 10:24:01;;;;;;;5.42;2.70;;;;;;;25.54;21.72;100376.29;1744545;80;25370;-60
2021/04/11 10:26:48;;;;;;;6.50;2.27;;;;;;;25.54;21.98;100401.98;1870476;74;25344;-61
2021/04/11 10:29:22;;;;;;;4.30;2.17;;;;;;;25.50;22.28;100392.13;1834462;77;25307;-61
2021/04/11 10:32:21;;;;;;;5.33;2.25;;;;;;;25.35;21.42;100388.11;1859986;77;26790;-62
2021/04/11 10:35:20;;;;;;;7.45;2.50;;;;;;;25.04;20.28;100376.65;1829096;77;25346;-63
2021/04/11 10:38:04;;;;;;;4.10;2.27;;;;;;;24.66;21.61;100384.80;1861797;75;25262;-61
2021/04/11 10:40:55;;;;;;;2.95;2.00;;;;;;;24.55;22.18;100368.24;1858525;75;25556;-61
2021/04/11 10:43:51;;;;;;;5.60;2.45;;;;;;;24.48;22.10;100385.62;1846933;75;25582;-61
2021/04/11 10:46:52;;;;;;;6.33;2.55;;;;;;;24.50;22.67;100368.63;1852018;75;25729;-59
2021/04/11 10:49:36;;;;;;;3.67;2.10;;;;;;;24.59;22.20;100372.57;1845146;75;25644;-61
2021/04/11 10:52:26;;;;;;;5.00;2.25;;;;;;;24.46;22.48;100350.69;1865325;75;25236;-62
2021/04/11 10:55:33;;;;;;;6.83;2.00;;;;;;;24.40;21.36;100356.45;1878038;76;26117;-61
2021/04/11 10:58:34;;;;;;;7.62;2.25;;;;;;;24.21;22.56;100350.22;1828861;78;25388;-61
2021/04/11 11:01:24;;;;;;;6.00;2.35;;;;;;;24.31;23.28;100350.56;1829468;78;25882;-61
2021/04/11 11:04:19;;;;;;;5.60;2.05;;;;;;;24.57;22.31;100336.25;1756438;81;25527;-61
2021/04/11 11:07:31;;;;;;;5.80;2.37;;;;;;;24.39;22.93;100337.68;1791845;79;25711;-62
2021/04/11 11:10:30;;;;;;;3.92;2.45;;;;;;;24.32;22.56;100336.95;1889175;75;25305;-62
2021/04/11 11:13:04;;;;;;;5.62;2.50;;;;;;;24.51;23.15;100338.42;1859290;77;25457;-62
2021/04/11 11:15:54;;;;;;;3.67;2.40;;;;;;;24.92;22.36;100326.13;1859179;75;25804;-62
2021/04/11 11:18:46;;;;;;;10.23;2.52;;;;;;;24.91;22.17;100336.22;1834384;77;25338;-62
2021/04/11 11:21:39;;;;;;;5.17;2.27;;;;;;;24.73;22.66;100345.42;1859668;77;25219;-64
2021/04/11 11:24:50;;;;;;;4.58;2.52;;;;;;;24.78;22.72;100348.38;1787715;79;25501;-63
2021/04/11 11:27:51;;;;;;;5.42;2.60;;;;;;;24.66;21.75;100344.70;1787472;80;25545;-62
2021/04/11 11:30:49;;;;;;;6.35;2.37;;;;;;;24.30;21.62;100331.81;1787764;80;25805;-62
2021/04/11 11:33:26;;;;;;;8.15;2.77;;;;;;;24.08;21.98;100340.79;1787736;80;25504;-63
2021/04/11 11:36:15;;;;;;;3.22;2.40;;;;;;;23.91;22.37;100324.47;1849454;76;25141;-63
2021/04/11 11:38:54;;;;;;;4.03;2.22;;;;;;;23.93;23.26;100322.69;1819680;78;25296;-63
2021/04/11 11:41:38;;;;;;;7.50;3.22;;;;;;;24.15;23.72;100319.25;1819705;78;28064;-63
2021/04/11 11:44:13;;;;;;;4.53;2.70;;;;;;;24.46;22.05;100318.89;1819300;78;25248;-64
2021/04/11 11:47:03;;;;;;;5.47;2.70;;;;;;;24.41;21.89;100311.02;1788057;78;25284;-63
2021/04/11 11:49:59;;;;;;;4.65;2.58;;;;;;;24.41;22.35;100307.66;1816620;77;25500;-63
2021/04/11 11:52:51;;;;;;;8.90;2.47;;;;;;;24.52;21.67;100305.42;1794401;78;25300;-61
2021/04/11 11:55:33;;;;;;;7.10;2.87;;;;;;;24.46;22.10;100316.13;1804401;78;25690;-61
2021/04/11 11:58:22;;;;;;;5.45;2.70;;;;;;;24.29;21.51;100301.21;1786727;80;25267;-62
2021/04/11 12:00:59;;;;;;;;;;;;;;;24.17;22.23;100313.50;1812374;77;25931;-60
2021/04/11 12:03:34;;;;;;;5.50;2.65;;;;;;;24.02;22.00;100314.75;1819500;78;25444;-62
2021/04/11 12:06:29;;;;;;;4.40;2.65;;;;;;;24.14;22.73;100315.68;1819563;78;25273;-64
2021/04/11 12:09:19;;;;;;;5.60;2.90;;;;;;;23.99;22.22;100301.16;1819483;78;27022;-63
2021/04/11 12:12:18;;;;;;;6.70;2.67;;;;;;;23.83;23.13;100293.30;1819342;78;25338;-62
2021/04/11 12:14:57;;;;;;;7.33;2.65;;;;;;;23.78;23.50;100310.26;1818473;78;25556;-63
2021/04/11 12:17:57;;;;;;;6.57;3.53;;;;;;;23.70;24.06;100301.83;1818577;78;25698;-63
2021/04/11 12:20:31;;;;;;;7.05;3.02;;;;;;;23.72;23.61;100296.69;1818385;78;25685;-63
2021/04/11 12:23:06;;;;;;;6.08;2.90;;;;;;;23.67;23.45;100301.23;1818617;78;26848;-63
2021/04/11 12:25:36;;;;;;;6.80;3.10;;;;;;;23.44;23.36;100301.06;1818136;78;25716;-63
2021/04/11 12:28:23;;;;;;;6.80;2.83;;;;;;;23.25;23.81;100287.70;1818444;78;26160;-61
2021/04/11 12:30:51;;;;;;;7.12;2.95;;;;;;;23.28;23.83;100310.36;1819671;78;25461;-63
2021/04/11 12:33:34;;;;;;;8.15;2.70;;;;;;;23.17;24.01;100284.73;1819655;78;25297;-62
2021/04/11 12:36:31;;;;;;;4.62;2.50;;;;;;;23.08;24.24;100283.77;1827612;78;25737;-62
2021/04/11 12:39:06;;;;;;;6.55;2.83;;;;;;;23.15;23.99;100273.31;1828775;78;25407;-63
2021/04/11 12:41:43;;;;;;;7.85;4.80;;;;;;;23.05;24.07;100267.37;1828198;78;25271;-63
2021/04/11 12:44:20;;;;;;;4.62;2.65;;;;;;;23.08;24.73;100274.11;1827828;78;25421;-62
2021/04/11 12:47:04;;;;;;;5.30;2.67;;;;;;;23.14;23.74;100308.41;1790688;78;25241;-68
2021/04/11 12:50:05;;;;;;;5.22;2.52;;;;;;;22.87;23.98;100272.13;1801899;78;25693;-65
2021/04/11 12:52:49;;;;;;;5.20;2.58;;;;;;;22.71;24.42;100263.64;1815789;78;25478;-65
2021/04/11 12:55:24;;;;;;;6.35;2.87;;;;;;;22.83;24.44;100254.20;1811668;77;25619;-65
2021/04/11 12:58:27;;;;;;;6.37;3.10;;;;;;;23.03;24.40;100266.98;1794692;79;25583;-66
2021/04/11 13:01:10;;;;;;;7.53;2.90;;;;;;;23.06;24.76;100259.93;1806285;77;25396;-64
2021/04/11 13:03:48;;;;;;;11.40;2.77;;;;;;;23.11;24.87;100250.66;1803109;78;25863;-63
2021/04/11 13:06:29;;;;;;;4.97;2.55;;;;;;;23.00;24.20;100266.98;1795663;79;25411;-64
2021/04/11 13:09:16;;;;;;;5.53;2.50;;;;;;;22.77;24.16;100264.03;1795701;79;25403;-66
2021/04/11 13:11:54;;;;;;;7.65;2.47;;;;;;;22.62;24.44;100254.17;1795449;79;25498;-66
2021/04/11 13:14:40;;;;;;;4.45;2.65;;;;;;;22.56;24.71;100248.27;1793257;79;25305;-66
2021/04/11 13:17:15;;;;;;;9.53;2.72;;;;;;;22.52;25.01;100247.46;1795676;79;26618;-63
2021/04/11 13:19:53;;;;;;;4.97;2.27;;;;;;;22.51;24.81;100242.55;1703681;83;25677;-66
2021/04/11 13:22:45;;;;;;;11.05;2.67;;;;;;;22.43;25.14;100247.06;1728823;82;25679;-65
2021/04/11 13:25:28;;;;;;;6.05;2.85;;;;;;;22.50;24.83;100240.18;1699200;84;25579;-65
2021/04/11 13:28:25;;;;;;;7.40;2.62;;;;;;;22.67;24.91;100231.13;1818157;78;25543;-64
2021/04/11 13:31:12;;;;;;;5.15;2.87;;;;;;;22.84;24.88;100228.78;1789344;80;25256;-65
2021/04/11 13:33:50;;;;;;;4.95;2.20;;;;;;;23.02;24.68;100233.70;1781611;80;25994;-63
2021/04/11 13:36:34;;;;;;;7.35;2.80;;;;;;;23.22;24.47;100225.80;1789238;80;25264;-64
2021/04/11 13:39:07;;;;;;;6.92;2.50;;;;;;;23.17;24.31;100231.72;1757406;81;25557;-65
2021/04/11 13:41:45;;;;;;;5.17;2.30;;;;;;;23.10;24.45;100224.27;1747673;81;25323;-63
2021/04/11 13:44:20;;;;;;;8.78;3.10;;;;;;;23.03;24.69;100241.38;1756351;81;26501;-63
2021/04/11 13:47:15;;;;;;;5.30;2.37;;;;;;;22.56;23.77;100260.08;1766932;81;26273;-64
2021/04/11 13:49:58;;;;;;;9.00;2.40;;;;;;;22.12;24.17;100237.70;1772371;81;25373;-64
2021/04/11 13:52:39;;;;;;;6.72;2.55;;;;;;;21.81;24.74;100282.63;1772344;81;25462;-63
2021/04/11 13:55:23;;;;;;;7.20;2.85;;;;;;;21.49;24.89;100245.88;1772409;81;25566;-64
2021/04/11 13:58:01;;;;;;;5.90;2.98;;;;;;;21.20;25.41;100236.06;1772039;81;25696;-64
2021/04/11 14:01:11;;;;;;;4.55;2.45;;;;;;;21.02;25.44;100242.80;1772599;81;25787;-62
2021/04/11 14:03:46;;;;;;;7.03;2.50;;;;;;;20.84;25.47;100244.02;1770875;81;25633;-63
2021/04/11 14:06:35;;;;;;;6.72;2.83;;;;;;;20.69;25.93;100237.03;1772694;81;25369;-65
2021/04/11 14:09:14;;;;;;;;;;;;;;;20.59;26.44;100236.33;1746843;81;25552;-66
2021/04/11 14:11:49;;;;;;;6.15;3.45;;;;;;;20.55;26.61;100237.45;1772692;81;25543;-64
2021/04/11 14:14:27;;;;;;;9.13;2.65;;;;;;;20.50;26.64;100248.22;1745311;81;25810;-67
2021/04/11 14:17:12;;;;;;;6.30;3.12;;;;;;;20.46;26.82;100259.15;1772679;80;25280;-65
2021/04/11 14:20:01;;;;;;;5.22;2.80;;;;;;;20.37;26.85;100248.28;1772735;81;25299;-65
2021/04/11 14:22:47;;;;;;;3.87;2.50;;;;;;;20.36;27.06;100243.34;1761623;81;25425;-66
2021/04/11 14:25:25;;;;;;;6.30;2.58;;;;;;;20.38;26.86;100244.34;1740932;82;25360;-66
2021/04/11 14:28:00;;;;;;;7.67;2.83;;;;;;;20.29;26.90;100245.44;1741931;82;25787;-65
2021/04/11 14:31:12;;;;;;;4.50;2.40;;;;;;;20.31;27.11;100251.37;1742081;82;25277;-65
2021/04/11 14:33:37;;;;;;;5.35;2.98;;;;;;;20.36;27.10;100243.94;1741338;82;25564;-64
2021/04/11 14:36:13;;;;;;;6.45;2.90;;;;;;;20.41;27.07;100248.50;1751730;81;25535;-65
2021/04/11 14:39:26;;;;;;;6.47;2.47;;;;;;;20.49;26.93;100255.66;1741186;81;25483;-65
2021/04/11 14:41:57;;;;;;;6.10;2.65;;;;;;;20.57;26.88;100236.48;1741544;82;25942;-65
2021/04/11 14:44:41;;;;;;;8.23;2.92;;;;;;;20.65;26.57;100248.59;1741542;82;25372;-63
2021/04/11 14:47:40;;;;;;;4.15;2.60;;;;;;;20.63;26.23;100226.77;1740531;82;25588;-65
2021/04/11 14:50:33;;;;;;;5.42;2.60;;;;;;;20.59;25.95;100225.92;1714318;82;25479;-65
2021/04/11 14:53:25;;;;;;;8.68;2.80;;;;;;;20.54;26.19;100247.66;1740612;82;25444;-66
2021/04/11 14:56:10;;;;;;;8.63;2.75;;;;;;;20.52;26.51;100227.43;1741279;82;25715;-65
2021/04/11 14:58:58;;;;;;;4.47;2.47;;;;;;;20.50;26.72;100235.86;1741477;82;25274;-64
2021/04/11 15:02:01;;;;;;;6.10;2.92;;;;;;;20.54;26.34;100227.05;1741489;82;25462;-64
2021/04/11 15:05:12;;;;;;;5.22;2.80;;;;;;;20.55;27.06;100226.46;1741409;82;25507;-63
2021/04/11 15:08:19;;;;;;;7.40;3.08;;;;;;;20.52;26.94;100223.91;1741491;82;25458;-63
2021/04/11 15:11:35;;;;;;;9.28;3.00;;;;;;;20.52;27.14;100239.80;1741316;82;25723;-64
2021/04/11 15:14:22;;;;;;;6.05;2.87;;;;;;;20.46;27.03;100237.17;1741483;82;25482;-64
2021/04/11 15:17:11;;;;;;;5.37;2.80;;;;;;;20.30;26.68;100227.80;1741232;82;25460;-64
2021/04/11 15:19:59;;;;;;;6.37;3.15;;;;;;;20.18;26.89;100236.91;1741383;82;25489;-63
2021/04/11 15:22:33;;;;;;;6.75;3.02;;;;;;;20.06;26.80;100235.20;1741618;82;25324;-63
2021/04/11 15:25:42;;;;;;;7.70;3.05;;;;;;;19.95;27.35;100241.92;1736770;82;25808;-62
2021/04/11 15:28:23;;;;;;;6.60;3.37;;;;;;;19.87;27.76;100234.75;1741557;81;25887;-63
2021/04/11 15:31:14;;;;;;;6.45;3.10;;;;;;;19.80;27.92;100237.42;1741493;82;25313;-64
2021/04/11 15:33:41;;;;;;;5.17;2.85;;;;;;;19.69;27.54;100234.52;1740396;82;25458;-64
2021/04/11 15:36:36;;;;;;;7.08;3.10;;;;;;;19.57;28.13;100230.05;1741497;82;25553;-63
2021/04/11 15:39:11;;;;;;;7.67;2.85;;;;;;;19.51;28.00;100231.52;1741076;82;25729;-64
2021/04/11 15:42:12;;;;;;;6.25;3.15;;;;;;;19.41;28.11;100236.50;1740848;82;25485;-65
2021/04/11 15:45:18;;;;;;;6.95;3.65;;;;;;;19.32;28.21;100232.44;1741414;82;25499;-65
2021/04/11 15:48:17;;;;;;;5.05;3.17;;;;;;;19.22;28.11;100233.30;1741182;82;25320;-65
2021/04/11 15:50:53;;;;;;;7.37;3.52;;;;;;;19.10;28.47;100235.44;1741816;81;25264;-65
2021/04/11 15:53:46;;;;;;;9.00;2.95;;;;;;;18.98;28.50;100239.95;1741474;82;25801;-64
2021/04/11 15:56:33;;;;;;;6.22;3.27;;;;;;;18.89;28.74;100242.16;1747899;81;25556;-64
2021/04/11 15:59:17;;;;;;;5.53;3.08;;;;;;;18.80;28.88;100238.28;1748557;81;25510;-65
2021/04/11 16:01:55;;;;;;;8.25;3.37;;;;;;;18.73;29.16;100235.42;1764136;81;25474;-64
2021/04/11 16:04:30;;;;;;;8.30;3.30;;;;;;;18.66;29.22;100236.09;1771020;81;25517;-65
2021/04/11 16:07:32;;;;;;;5.83;3.58;;;;;;;18.59;29.36;100235.97;1770850;81;26629;-64
2021/04/11 16:10:24;;;;;;;5.90;3.37;;;;;;;18.54;29.39;100242.31;1770591;81;25620;-64
2021/04/11 16:13:20;;;;;;;9.65;3.35;;;;;;;18.46;29.45;100243.56;1771151;81;25636;-63
2021/04/11 16:16:11;;;;;;;6.08;3.00;;;;;;;18.39;29.67;100243.44;1770869;81;25660;-64
2021/04/11 16:18:49;;;;;;;8.58;3.72;;;;;;;18.34;29.98;100244.28;1772118;81;25356;-64
2021/04/11 16:21:49;;;;;;;5.65;3.05;;;;;;;18.26;30.11;100244.75;1771876;81;25821;-64
2021/04/11 16:24:47;;;;;;;10.68;3.87;;;;;;;18.20;30.33;100245.62;1771753;81;25337;-63
2021/04/11 16:27:37;;;;;;;5.83;3.45;;;;;;;18.13;30.41;100242.73;1767532;81;25469;-65
2021/04/11 16:30:36;;;;;;;9.63;3.45;;;;;;;18.06;30.50;100237.12;1732254;82;25453;-65
2021/04/11 16:33:32;;;;;;;7.65;2.85;;;;;;;18.07;30.75;100248.30;1849671;76;25338;-64
2021/04/11 16:36:23;;;;;;;8.78;3.17;;;;;;;17.94;30.88;100242.75;1818528;78;25412;-65
2021/04/11 16:39:06;;;;;;;6.95;3.22;;;;;;;17.87;30.95;100244.17;1819332;78;25684;-64
2021/04/11 16:42:01;;;;;;;6.47;3.22;;;;;;;17.83;31.01;100242.50;1819581;78;25489;-65
2021/04/11 16:44:36;;;;;;;7.53;3.98;;;;;;;17.78;31.28;100249.05;1819612;78;25495;-65
2021/04/11 16:47:24;;;;;;;11.00;3.92;;;;;;;17.72;31.31;100252.65;1819506;78;25335;-65
2021/04/11 16:50:03;;;;;;;8.23;3.58;;;;;;;17.67;31.40;100250.75;1818709;78;25490;-64
2021/04/11 16:52:37;;;;;;;7.53;3.30;;;;;;;17.62;31.38;100254.58;1819631;78;25686;-65
2021/04/11 16:55:19;;;;;;;4.80;3.40;;;;;;;17.58;31.50;100264.63;1818837;78;25253;-64
2021/04/11 16:58:09;;;;;;;7.05;3.17;;;;;;;17.53;31.48;100261.59;1819752;78;25386;-64
2021/04/11 17:00:40;;;;;;;5.35;3.17;;;;;;;17.50;31.42;100270.53;1787089;80;25438;-64
2021/04/11 17:03:30;;;;;;;5.37;3.40;;;;;;;17.47;31.62;100267.13;1787488;80;25302;-65
2021/04/11 17:06:02;;;;;;;10.90;3.42;;;;;;;17.45;31.70;100271.36;1783860;80;25718;-64
2021/04/11 17:08:37;;;;;;;6.30;3.62;;;;;;;17.41;31.78;100268.55;1787130;80;25313;-66
2021/04/11 17:11:29;;;;;;;6.03;3.37;;;;;;;17.39;31.88;100270.85;1691552;84;25385;-62
2021/04/11 17:14:38;;;;;;;5.78;3.40;;;;;;;17.35;31.99;100287.76;1691600;84;25418;-64
2021/04/11 17:17:18;;;;;;;8.83;3.50;;;;;;;17.31;32.10;100274.56;1691698;84;25512;-64
2021/04/11 17:19:54;;;;;;;9.30;4.10;;;;;;;17.25;32.22;100278.15;1684094;84;25718;-64
2021/04/11 17:22:41;;;;;;;6.37;3.12;;;;;;;17.22;32.26;100276.12;1690935;84;25651;-64
2021/04/11 17:25:22;;;;;;;6.92;3.52;;;;;;;17.17;32.35;100285.38;1691674;84;25635;-64
2021/04/11 17:28:06;;;;;;;4.90;3.00;;;;;;;17.13;32.29;100283.72;1689674;84;25445;-63
2021/04/11 17:30:38;;;;;;;5.65;3.30;;;;;;;17.09;32.36;100285.55;1787199;80;25447;-66
2021/04/11 17:33:10;;;;;;;7.45;3.47;;;;;;;17.05;32.36;100284.10;1786800;80;26007;-64
2021/04/11 17:36:02;;;;;;;6.50;3.25;;;;;;;17.02;32.45;100295.73;1786837;80;25245;-64
2021/04/11 17:39:07;;;;;;;6.42;3.62;;;;;;;16.99;32.44;100290.97;1787075;80;25438;-64
2021/04/11 17:41:57;;;;;;;6.15;3.58;;;;;;;16.95;32.53;100290.88;1787293;80;25446;-65
2021/04/11 17:45:01;;;;;;;9.60;4.42;;;;;;;16.92;32.52;100298.99;1786673;80;25519;-64
2021/04/11 17:48:01;;;;;;;7.08;3.55;;;;;;;16.88;32.69;100302.22;1786815;80;25917;-64
2021/04/11 17:50:59;;;;;;;4.97;3.50;;;;;;;16.85;32.67;100298.81;1786789;80;25265;-64
2021/04/11 17:53:46;;;;;;;8.00;3.50;;;;;;;16.84;32.64;100301.28;1786389;80;25489;-67
2021/04/11 17:56:30;;;;;;;7.22;3.62;;;;;;;16.83;32.77;100303.23;1779970;80;25565;-64
2021/04/11 17:59:36;;;;;;;8.20;3.55;;;;;;;16.87;32.72;100318.37;1849682;75;25294;-63
2021/04/11 18:02:35;;;;;;;9.53;4.17;;;;;;;16.78;32.71;100313.05;1819694;78;25328;-62
2021/04/11 18:05:28;;;;;;;8.05;3.35;;;;;;;16.77;32.78;100323.74;1819666;78;25840;-63
2021/04/11 18:08:12;;;;;;;5.08;3.47;;;;;;;16.75;32.87;100320.57;1819497;78;25251;-65
2021/04/11 18:11:05;;;;;;;8.53;4.12;;;;;;;16.73;32.93;100318.77;1797644;78;25671;-65
2021/04/11 18:13:59;;;;;;;5.72;3.42;;;;;;;16.71;32.98;100319.12;1807691;78;25489;-65
2021/04/11 18:16:47;;;;;;;8.13;3.40;;;;;;;16.70;32.94;100333.12;1787379;80;25272;-65
2021/04/11 18:19:40;;;;;;;6.70;3.65;;;;;;;16.68;33.12;100313.56;1787458;80;25753;-63
2021/04/11 18:22:21;;;;;;;6.17;4.08;;;;;;;16.65;32.97;100317.77;1787111;80;25658;-64
2021/04/11 18:25:18;;;;;;;7.15;4.58;;;;;;;16.59;33.14;100320.55;1787330;80;25518;-63
2021/04/11 18:28:19;;;;;;;8.90;4.05;;;;;;;16.62;33.23;100330.78;1787320;80;25280;-64
2021/04/11 18:30:51;;;;;;;7.37;4.00;;;;;;;16.60;33.17;100332.49;1720375;83;25390;-64
2021/04/11 18:33:47;;;;;;;6.37;4.10;;;;;;;16.64;33.22;100328.48;1889137;76;25348;-64
2021/04/11 18:36:53;;;;;;;5.45;4.22;;;;;;;16.63;33.26;100335.08;1833459;76;27656;-64
2021/04/11 18:39:46;;;;;;;7.72;4.08;;;;;;;16.61;33.27;100326.45;1819722;78;25455;-65
2021/04/11 18:42:33;;;;;;;6.75;3.90;;;;;;;16.59;33.19;100339.09;1819744;78;25755;-64
2021/04/11 18:45:26;;;;;;;7.72;3.77;;;;;;;16.56;33.13;100328.06;1819335;78;25264;-64
2021/04/11 18:48:01;;;;;;;4.95;3.90;;;;;;;16.55;33.36;100333.30;1789008;78;25546;-64
2021/04/11 18:51:12;;;;;;;6.60;4.45;;;;;;;16.51;33.24;100338.66;1795770;78;25634;-64
2021/04/11 18:53:55;;;;;;;6.75;3.77;;;;;;;16.50;33.38;100332.99;1801412;78;25497;-65
2021/04/11 18:56:39;;;;;;;5.78;3.80;;;;;;;16.46;33.35;100328.57;1793685;78;25902;-64
2021/04/11 18:59:38;;;;;;;7.10;3.87;;;;;;;16.44;33.38;100329.70;1801944;78;25427;-65
2021/04/11 19:02:31;;;;;;;5.70;3.90;;;;;;;16.42;33.38;100331.98;1819738;78;25439;-64
2021/04/11 19:05:18;;;;;;;7.15;4.45;;;;;;;16.39;33.46;100328.58;1819677;78;25492;-64
2021/04/11 19:07:53;;;;;;;8.60;4.50;;;;;;;16.36;33.44;100338.04;1819378;78;25126;-64
2021/04/11 19:11:08;;;;;;;7.58;4.22;;;;;;;16.33;33.59;100338.17;1819158;78;25725;-64